Time;durP1;ratioP1;P1;durP2;ratioP2;P2;SDS_P1;SDS_P2;PMS_P1;PMS_P2;Temp;Humidity;BMP_temperature;BMP_pressure;BME280_temperature;BME280_humidity;BME280_pressure;Samples;Min_cycle;Max_cycle;Signal;HPM_P1;HPM_P2
2023/03/16 00:00:03;;;;;;;2.67;1.90;;;;;;;;;;4996749;28;20317;-55
2023/03/16 00:02:29;;;;;;;2.83;2.10;;;;;;;;;;4999085;28;20678;-55
2023/03/16 00:04:55;;;;;;;3.37;2.00;;;;;;;;;;5001333;28;20268;-58
2023/03/16 00:07:21;;;;;;;3.93;2.90;;;;;;;;;;5003029;28;20262;-57
2023/03/16 00:09:48;;;;;;;2.37;2.13;;;;;;;;;;4998479;28;20642;-55
2023/03/16 00:12:17;;;;;;;4.23;2.40;;;;;;;;;;4998869;28;20623;-55
2023/03/16 00:14:44;;;;;;;2.33;2.13;;;;;;;;;;5000435;28;20179;-55
2023/03/16 00:17:17;;;;;;;2.23;1.90;;;;;;;;;;5001854;28;20445;-55
2023/03/16 00:20:11;;;;;;;2.83;2.20;;;;;;;;;;4999538;28;20265;-55
2023/03/16 00:22:37;;;;;;;5.43;2.60;;;;;;;;;;5000252;28;20579;-55
2023/03/16 00:25:03;;;;;;;2.67;2.20;;;;;;;;;;5003935;28;20864;-55
2023/03/16 00:27:29;;;;;;;2.40;2.17;;;;;;;;;;5003725;28;20187;-55
2023/03/16 00:29:55;;;;;;;2.40;2.20;;;;;;;;;;5002996;28;20183;-56
2023/03/16 00:32:32;;;;;;;2.17;1.97;;;;;;;;;;5004856;28;20701;-56
2023/03/16 00:34:58;;;;;;;2.40;2.20;;;;;;;;;;5009241;28;20265;-54
2023/03/16 00:37:26;;;;;;;2.87;2.57;;;;;;;;;;5002299;28;20831;-55
2023/03/16 00:39:54;;;;;;;2.27;2.07;;;;;;;;;;5004015;28;20182;-54
2023/03/16 00:42:26;;;;;;;2.80;2.50;;;;;;;;;;5021637;28;20273;-55
2023/03/16 00:44:56;;;;;;;2.63;2.33;;;;;;;;;;4999727;28;20175;-54
2023/03/16 00:47:22;;;;;;;3.67;2.37;;;;;;;;;;5001670;28;20183;-54
2023/03/16 00:49:48;;;;;;;2.57;2.37;;;;;;;;;;5008073;28;20293;-55
2023/03/16 00:52:14;;;;;;;4.67;2.23;;;;;;;;;;5002304;28;20610;-55
2023/03/16 00:54:44;;;;;;;1.93;1.83;;;;;;;;;;5001785;28;20191;-55
2023/03/16 00:57:11;;;;;;;2.87;2.10;;;;;;;;;;5003038;28;20306;-55
2023/03/16 00:59:38;;;;;;;4.20;2.20;;;;;;;;;;4999415;28;20190;-55
2023/03/16 01:02:05;;;;;;;2.67;2.27;;;;;;;;;;4998336;28;20210;-55
2023/03/16 01:04:33;;;;;;;2.37;2.17;;;;;;;;;;5002187;28;20644;-55
2023/03/16 01:06:59;;;;;;;4.00;2.23;;;;;;;;;;5002956;28;20188;-55
2023/03/16 01:09:25;;;;;;;3.10;2.10;;;;;;;;;;5001220;28;20206;-55
2023/03/16 01:11:54;;;;;;;2.27;1.73;;;;;;;;;;5003689;28;20610;-54
2023/03/16 01:14:20;;;;;;;2.30;1.83;;;;;;;;;;4996368;28;20199;-54
2023/03/16 01:16:47;;;;;;;2.37;2.17;;;;;;;;;;4997410;28;20606;-54
2023/03/16 01:19:13;;;;;;;3.30;2.07;;;;;;;;;;4997099;28;20306;-55
2023/03/16 01:21:41;;;;;;;2.60;2.27;;;;;;;;;;5000364;28;20203;-54
2023/03/16 01:24:07;;;;;;;2.80;2.17;;;;;;;;;;4997053;28;20622;-55
2023/03/16 01:26:33;;;;;;;2.30;2.10;;;;;;;;;;4997877;28;20175;-55
2023/03/16 01:28:59;;;;;;;2.43;2.13;;;;;;;;;;4996973;28;20489;-55
2023/03/16 01:31:25;;;;;;;3.27;2.37;;;;;;;;;;4995094;28;20187;-55
2023/03/16 01:33:51;;;;;;;2.50;2.27;;;;;;;;;;4994856;28;20194;-54
2023/03/16 01:36:18;;;;;;;2.27;1.90;;;;;;;;;;4996494;28;20178;-55
2023/03/16 01:38:45;;;;;;;2.87;2.30;;;;;;;;;;4997649;28;20194;-59
2023/03/16 01:41:11;;;;;;;2.43;2.00;;;;;;;;;;5001990;28;20210;-55
2023/03/16 01:43:38;;;;;;;2.43;2.23;;;;;;;;;;5001218;28;20269;-55
2023/03/16 01:46:04;;;;;;;5.37;2.10;;;;;;;;;;4996207;28;20205;-55
2023/03/16 01:48:36;;;;;;;3.20;2.30;;;;;;;;;;4995899;28;20698;-55
2023/03/16 01:51:08;;;;;;;2.27;2.07;;;;;;;;;;4998370;28;20650;-54
2023/03/16 01:53:34;;;;;;;2.50;2.07;;;;;;;;;;4996555;28;20306;-55
2023/03/16 01:56:02;;;;;;;3.83;1.97;;;;;;;;;;5000410;28;20304;-55
2023/03/16 01:58:29;;;;;;;3.37;2.20;;;;;;;;;;4997556;28;20753;-55
2023/03/16 02:00:56;;;;;;;3.00;2.10;;;;;;;;;;4997701;28;20721;-55
2023/03/16 02:03:23;;;;;;;2.50;2.27;;;;;;;;;;4995573;28;20262;-55
2023/03/16 02:05:53;;;;;;;2.93;2.60;;;;;;;;;;4995192;28;20214;-55
2023/03/16 02:08:21;;;;;;;1.90;1.80;;;;;;;;;;4998183;28;20244;-55
2023/03/16 02:10:48;;;;;;;2.63;2.23;;;;;;;;;;4994474;28;20199;-55
2023/03/16 02:13:14;;;;;;;2.60;2.20;;;;;;;;;;4999818;28;20265;-55
2023/03/16 02:15:40;;;;;;;2.40;2.07;;;;;;;;;;4993524;28;20648;-55
2023/03/16 02:18:07;;;;;;;2.90;2.07;;;;;;;;;;4997720;28;20638;-56
2023/03/16 02:20:42;;;;;;;2.23;1.90;;;;;;;;;;4994324;28;20222;-55
2023/03/16 02:23:17;;;;;;;3.03;2.23;;;;;;;;;;5000059;28;20266;-55
2023/03/16 02:25:43;;;;;;;2.00;1.77;;;;;;;;;;5004348;28;20174;-55
2023/03/16 02:28:27;;;;;;;2.97;2.20;;;;;;;;;;5000129;28;20174;-55
2023/03/16 02:30:53;;;;;;;2.50;2.20;;;;;;;;;;4996053;28;20899;-55
2023/03/16 02:33:20;;;;;;;2.23;2.07;;;;;;;;;;4996206;28;20267;-55
2023/03/16 02:35:49;;;;;;;2.63;2.10;;;;;;;;;;4997227;28;20185;-53
2023/03/16 02:38:16;;;;;;;2.23;1.80;;;;;;;;;;4999286;28;20214;-55
2023/03/16 02:40:42;;;;;;;2.40;2.20;;;;;;;;;;4996534;28;20219;-55
2023/03/16 02:43:16;;;;;;;2.00;1.80;;;;;;;;;;5002086;28;20213;-54
2023/03/16 02:45:50;;;;;;;2.83;1.80;;;;;;;;;;4998138;28;20646;-54
2023/03/16 02:48:21;;;;;;;2.67;1.77;;;;;;;;;;4997171;28;20189;-54
2023/03/16 02:50:48;;;;;;;2.27;1.60;;;;;;;;;;4994941;28;20186;-54
2023/03/16 02:53:14;;;;;;;2.37;2.17;;;;;;;;;;4998470;28;20194;-54
2023/03/16 02:55:40;;;;;;;4.00;2.03;;;;;;;;;;4999178;28;20880;-55
2023/03/16 02:58:06;;;;;;;2.40;1.83;;;;;;;;;;5000015;28;20186;-55
2023/03/16 03:00:33;;;;;;;2.37;2.03;;;;;;;;;;4997394;28;20266;-55
2023/03/16 03:02:59;;;;;;;2.30;2.03;;;;;;;;;;5002543;28;20187;-55
2023/03/16 03:05:25;;;;;;;2.20;2.00;;;;;;;;;;5004579;28;20187;-55
2023/03/16 03:07:51;;;;;;;2.63;2.40;;;;;;;;;;4994476;28;20218;-55
2023/03/16 03:10:18;;;;;;;2.07;1.87;;;;;;;;;;5001397;28;20662;-55
2023/03/16 03:12:48;;;;;;;4.47;2.10;;;;;;;;;;4999240;28;20213;-55
2023/03/16 03:15:15;;;;;;;2.07;1.60;;;;;;;;;;4996713;28;20586;-55
2023/03/16 03:17:41;;;;;;;3.20;2.37;;;;;;;;;;4994941;28;20215;-55
2023/03/16 03:20:15;;;;;;;6.13;2.50;;;;;;;;;;5001496;28;20280;-55
2023/03/16 03:22:41;;;;;;;2.77;1.83;;;;;;;;;;5004711;28;20179;-55
2023/03/16 03:25:07;;;;;;;2.60;2.40;;;;;;;;;;4999677;28;20232;-55
2023/03/16 03:27:33;;;;;;;3.17;1.80;;;;;;;;;;5000803;28;20182;-55
2023/03/16 03:30:00;;;;;;;1.70;1.60;;;;;;;;;;5001756;28;20167;-54
2023/03/16 03:32:26;;;;;;;2.57;2.20;;;;;;;;;;5006210;28;20810;-55
2023/03/16 03:34:52;;;;;;;2.00;1.80;;;;;;;;;;5001077;28;20528;-57
2023/03/16 03:37:18;;;;;;;2.20;2.00;;;;;;;;;;5004803;28;20213;-56
2023/03/16 03:39:44;;;;;;;3.00;2.10;;;;;;;;;;5000272;28;20490;-55
2023/03/16 03:42:11;;;;;;;3.20;1.70;;;;;;;;;;5000775;28;20206;-55
2023/03/16 03:44:37;;;;;;;2.17;1.90;;;;;;;;;;4999741;28;20708;-55
2023/03/16 03:47:04;;;;;;;3.37;2.00;;;;;;;;;;5005183;28;20691;-55
2023/03/16 03:49:30;;;;;;;2.10;1.90;;;;;;;;;;5003827;28;20179;-55
2023/03/16 03:51:58;;;;;;;1.80;1.70;;;;;;;;;;4998669;28;20193;-55
2023/03/16 03:54:24;;;;;;;2.27;2.07;;;;;;;;;;4999636;28;20182;-55
2023/03/16 03:56:51;;;;;;;2.57;2.07;;;;;;;;;;5001518;28;20175;-55
2023/03/16 03:59:17;;;;;;;4.30;2.17;;;;;;;;;;4998777;28;20174;-55
2023/03/16 04:01:43;;;;;;;2.53;2.00;;;;;;;;;;4995687;28;20202;-56
2023/03/16 04:04:09;;;;;;;1.80;1.70;;;;;;;;;;5005473;28;20228;-55
2023/03/16 04:06:35;;;;;;;2.87;1.73;;;;;;;;;;5001131;28;20182;-55
2023/03/16 04:09:01;;;;;;;1.93;1.80;;;;;;;;;;4999852;28;20267;-55
2023/03/16 04:11:27;;;;;;;2.10;2.00;;;;;;;;;;5002573;28;20218;-55
2023/03/16 04:13:53;;;;;;;2.87;2.23;;;;;;;;;;4997129;28;20222;-56
2023/03/16 04:16:20;;;;;;;2.47;2.27;;;;;;;;;;4995741;28;20179;-55
2023/03/16 04:18:47;;;;;;;1.90;1.80;;;;;;;;;;4993722;28;20238;-55
2023/03/16 04:21:16;;;;;;;2.50;1.90;;;;;;;;;;5004201;28;20213;-54
2023/03/16 04:23:43;;;;;;;2.47;2.00;;;;;;;;;;5003593;28;20906;-54
2023/03/16 04:26:09;;;;;;;4.23;2.17;;;;;;;;;;5000130;28;20623;-54
2023/03/16 04:28:35;;;;;;;3.27;1.87;;;;;;;;;;5004172;28;20197;-54
2023/03/16 04:31:05;;;;;;;2.97;1.97;;;;;;;;;;5000971;28;20194;-54
2023/03/16 04:33:32;;;;;;;1.70;1.60;;;;;;;;;;5001960;28;20178;-54
2023/03/16 04:35:58;;;;;;;2.40;2.20;;;;;;;;;;5004127;28;20179;-54
2023/03/16 04:38:24;;;;;;;2.57;2.20;;;;;;;;;;5004621;28;20217;-54
2023/03/16 04:40:51;;;;;;;4.67;2.27;;;;;;;;;;4997106;28;20209;-54
2023/03/16 04:43:17;;;;;;;2.57;2.13;;;;;;;;;;5002244;28;20649;-54
2023/03/16 04:45:43;;;;;;;1.70;1.60;;;;;;;;;;5002607;28;20249;-55
2023/03/16 04:48:09;;;;;;;2.13;1.90;;;;;;;;;;4999696;28;20218;-54
2023/03/16 04:50:35;;;;;;;3.60;2.10;;;;;;;;;;5002904;28;20488;-54
2023/03/16 04:53:03;;;;;;;2.00;1.73;;;;;;;;;;4998367;28;21336;-54
2023/03/16 04:55:30;;;;;;;2.37;2.17;;;;;;;;;;5002066;28;20178;-54
2023/03/16 04:57:56;;;;;;;2.20;2.00;;;;;;;;;;4999194;28;20206;-55
2023/03/16 05:00:22;;;;;;;2.00;1.80;;;;;;;;;;4998977;28;20692;-54
2023/03/16 05:02:49;;;;;;;2.00;1.83;;;;;;;;;;4998916;28;20572;-54
2023/03/16 05:05:15;;;;;;;2.97;2.67;;;;;;;;;;5003416;28;20270;-57
2023/03/16 05:07:42;;;;;;;2.50;2.10;;;;;;;;;;4999896;28;20185;-54
2023/03/16 05:10:09;;;;;;;2.67;2.40;;;;;;;;;;5000688;28;20199;-54
2023/03/16 05:12:35;;;;;;;2.53;2.10;;;;;;;;;;4999692;28;20217;-54
2023/03/16 05:15:01;;;;;;;4.27;2.30;;;;;;;;;;4997636;28;20179;-54
2023/03/16 05:17:27;;;;;;;3.30;2.07;;;;;;;;;;5001542;28;20194;-55
2023/03/16 05:19:53;;;;;;;2.40;2.20;;;;;;;;;;5005572;28;20636;-54
2023/03/16 05:22:19;;;;;;;2.47;2.20;;;;;;;;;;4999743;28;20734;-54
2023/03/16 05:24:45;;;;;;;2.57;2.20;;;;;;;;;;5001145;28;20270;-54
2023/03/16 05:27:11;;;;;;;3.30;3.00;;;;;;;;;;4999268;28;20205;-54
2023/03/16 05:29:38;;;;;;;2.20;2.00;;;;;;;;;;5003331;28;20186;-54
2023/03/16 05:32:05;;;;;;;3.20;2.90;;;;;;;;;;4997450;28;20201;-54
2023/03/16 05:34:31;;;;;;;3.20;2.90;;;;;;;;;;5000832;28;20179;-54
2023/03/16 05:36:57;;;;;;;2.57;2.37;;;;;;;;;;4998455;28;20206;-54
2023/03/16 05:39:23;;;;;;;3.73;2.43;;;;;;;;;;5000395;28;20187;-56
2023/03/16 05:41:49;;;;;;;2.70;2.37;;;;;;;;;;4999502;28;20199;-56
2023/03/16 05:44:15;;;;;;;2.60;2.37;;;;;;;;;;4995464;28;20517;-56
2023/03/16 05:46:44;;;;;;;2.90;2.33;;;;;;;;;;4994246;28;20614;-55
2023/03/16 05:49:11;;;;;;;3.07;2.70;;;;;;;;;;4993616;28;20183;-55
2023/03/16 05:51:37;;;;;;;3.47;2.57;;;;;;;;;;4996632;28;20302;-55
2023/03/16 05:54:04;;;;;;;3.47;2.70;;;;;;;;;;4997785;28;20204;-53
2023/03/16 05:56:30;;;;;;;5.10;2.53;;;;;;;;;;4996334;28;20205;-54
2023/03/16 05:58:56;;;;;;;2.83;2.63;;;;;;;;;;4993429;28;20189;-54
2023/03/16 06:01:22;;;;;;;3.47;3.07;;;;;;;;;;4998064;28;20198;-54
2023/03/16 06:03:50;;;;;;;3.47;2.90;;;;;;;;;;4998044;28;20859;-54
2023/03/16 06:06:16;;;;;;;4.10;2.73;;;;;;;;;;4996407;28;20787;-54
2023/03/16 06:08:43;;;;;;;3.93;2.80;;;;;;;;;;5003331;28;20221;-54
2023/03/16 06:11:09;;;;;;;3.23;2.93;;;;;;;;;;4995033;28;20202;-55
2023/03/16 06:13:35;;;;;;;3.57;2.80;;;;;;;;;;4992842;28;20727;-54
2023/03/16 06:16:01;;;;;;;4.03;2.93;;;;;;;;;;4993454;28;20187;-54
2023/03/16 06:18:27;;;;;;;3.43;3.10;;;;;;;;;;4994671;28;20191;-54
2023/03/16 06:20:53;;;;;;;5.17;2.90;;;;;;;;;;4998206;28;20214;-55
2023/03/16 06:23:20;;;;;;;4.07;3.30;;;;;;;;;;4995020;28;20265;-54
2023/03/16 06:25:49;;;;;;;3.20;2.90;;;;;;;;;;4998196;28;20189;-54
2023/03/16 06:28:16;;;;;;;3.73;3.17;;;;;;;;;;4993898;28;20205;-54
2023/03/16 06:30:42;;;;;;;4.10;3.33;;;;;;;;;;4994681;28;20268;-54
2023/03/16 06:33:08;;;;;;;3.50;3.20;;;;;;;;;;4998836;28;20205;-54
2023/03/16 06:35:34;;;;;;;4.23;3.07;;;;;;;;;;4992945;28;20186;-52
2023/03/16 06:38:00;;;;;;;3.53;3.17;;;;;;;;;;5000886;28;20181;-52
2023/03/16 06:40:26;;;;;;;3.20;2.90;;;;;;;;;;4998418;28;20455;-52
2023/03/16 06:42:52;;;;;;;3.53;2.83;;;;;;;;;;4995915;28;20182;-53
2023/03/16 06:45:21;;;;;;;3.53;3.23;;;;;;;;;;4997855;28;20278;-53
2023/03/16 06:47:47;;;;;;;5.57;3.50;;;;;;;;;;4999285;28;20548;-52
2023/03/16 06:50:13;;;;;;;4.53;3.07;;;;;;;;;;4999089;28;20182;-52
2023/03/16 06:52:40;;;;;;;5.20;3.50;;;;;;;;;;4996675;28;20178;-52
2023/03/16 06:55:06;;;;;;;3.97;3.57;;;;;;;;;;5005311;28;20253;-52
2023/03/16 06:57:32;;;;;;;4.23;3.30;;;;;;;;;;5002764;28;20183;-53
2023/03/16 06:59:58;;;;;;;4.40;3.50;;;;;;;;;;5002662;28;20281;-52
2023/03/16 07:02:24;;;;;;;3.60;3.30;;;;;;;;;;5001161;28;20213;-52
2023/03/16 07:04:51;;;;;;;3.87;3.43;;;;;;;;;;5002484;28;20178;-52
2023/03/16 07:07:18;;;;;;;3.53;2.93;;;;;;;;;;4999462;28;20179;-52
2023/03/16 07:09:44;;;;;;;3.87;3.23;;;;;;;;;;5002836;28;20251;-52
2023/03/16 07:12:10;;;;;;;3.57;3.27;;;;;;;;;;5006271;28;20202;-52
2023/03/16 07:14:36;;;;;;;5.80;2.77;;;;;;;;;;5003546;28;20562;-52
2023/03/16 07:17:02;;;;;;;3.13;2.83;;;;;;;;;;4999268;28;20181;-53
2023/03/16 07:19:29;;;;;;;3.83;3.10;;;;;;;;;;4998967;28;20226;-52
2023/03/16 07:21:55;;;;;;;3.77;3.37;;;;;;;;;;5003725;28;20293;-53
2023/03/16 07:24:21;;;;;;;4.20;3.13;;;;;;;;;;5002361;28;20333;-52
2023/03/16 07:26:47;;;;;;;3.53;2.80;;;;;;;;;;5001953;28;20170;-52
2023/03/16 07:29:14;;;;;;;4.50;3.10;;;;;;;;;;5002388;28;20551;-53
2023/03/16 07:31:40;;;;;;;3.23;2.90;;;;;;;;;;5001006;28;20426;-52
2023/03/16 07:34:06;;;;;;;3.90;3.00;;;;;;;;;;5004072;28;20189;-52
2023/03/16 07:36:33;;;;;;;3.47;3.13;;;;;;;;;;5006058;28;20188;-53
2023/03/16 07:39:00;;;;;;;3.47;3.10;;;;;;;;;;5000214;28;20241;-54
2023/03/16 07:41:26;;;;;;;3.20;2.90;;;;;;;;;;4997906;28;20210;-53
2023/03/16 07:43:52;;;;;;;3.03;2.83;;;;;;;;;;4997160;28;20174;-53
2023/03/16 07:46:18;;;;;;;6.10;3.70;;;;;;;;;;5002620;28;20186;-53
2023/03/16 07:48:44;;;;;;;3.00;2.70;;;;;;;;;;5004572;28;20194;-52
2023/03/16 07:51:11;;;;;;;3.20;2.53;;;;;;;;;;5003112;28;20181;-53
2023/03/16 07:53:38;;;;;;;3.03;2.77;;;;;;;;;;5004001;28;20183;-53
2023/03/16 07:56:04;;;;;;;4.10;3.23;;;;;;;;;;5002376;28;20542;-53
2023/03/16 07:58:30;;;;;;;4.17;3.30;;;;;;;;;;4999523;28;20186;-53
2023/03/16 08:00:57;;;;;;;3.40;3.10;;;;;;;;;;4999892;28;20205;-53
2023/03/16 08:03:23;;;;;;;3.90;3.53;;;;;;;;;;5004266;28;20174;-53
2023/03/16 08:05:50;;;;;;;3.27;2.40;;;;;;;;;;4998947;28;20183;-53
2023/03/16 08:08:16;;;;;;;3.03;2.77;;;;;;;;;;5008369;28;20182;-53
2023/03/16 08:10:43;;;;;;;3.43;3.13;;;;;;;;;;4998658;28;20924;-53
2023/03/16 08:13:09;;;;;;;3.73;2.93;;;;;;;;;;5003852;28;20634;-53
2023/03/16 08:15:35;;;;;;;3.00;2.70;;;;;;;;;;5001983;28;20179;-53
2023/03/16 08:18:01;;;;;;;3.93;3.30;;;;;;;;;;5003391;28;20346;-53
2023/03/16 08:20:28;;;;;;;4.73;4.13;;;;;;;;;;5000860;28;20246;-53
2023/03/16 08:22:54;;;;;;;3.00;2.70;;;;;;;;;;5001522;28;20191;-53
2023/03/16 08:25:20;;;;;;;4.00;3.07;;;;;;;;;;5000952;28;20171;-53
2023/03/16 08:27:47;;;;;;;4.37;2.70;;;;;;;;;;5004199;28;20183;-55
2023/03/16 08:30:14;;;;;;;3.00;2.70;;;;;;;;;;5001822;28;20278;-53
2023/03/16 08:32:40;;;;;;;4.53;2.80;;;;;;;;;;4999119;28;20182;-53
2023/03/16 08:35:08;;;;;;;4.07;3.07;;;;;;;;;;5000540;28;20183;-53
2023/03/16 08:37:34;;;;;;;4.47;2.67;;;;;;;;;;4999638;28;20188;-53
2023/03/16 08:40:00;;;;;;;3.60;3.23;;;;;;;;;;5000323;28;20183;-53
2023/03/16 08:42:27;;;;;;;3.83;3.17;;;;;;;;;;5002789;28;20203;-53
2023/03/16 08:44:54;;;;;;;4.50;3.10;;;;;;;;;;5004035;28;20269;-53
2023/03/16 08:47:21;;;;;;;3.07;2.73;;;;;;;;;;5002098;28;20178;-53
2023/03/16 08:49:48;;;;;;;3.30;2.90;;;;;;;;;;5003415;28;20192;-53
2023/03/16 08:52:14;;;;;;;6.53;3.40;;;;;;;;;;4998665;28;20185;-53
2023/03/16 08:54:41;;;;;;;4.83;3.40;;;;;;;;;;5002046;28;20182;-53
2023/03/16 08:57:09;;;;;;;3.97;3.33;;;;;;;;;;5011179;28;20191;-52
2023/03/16 08:59:35;;;;;;;3.37;3.07;;;;;;;;;;5001761;28;20500;-53
2023/03/16 09:02:03;;;;;;;3.27;2.93;;;;;;;;;;4999131;28;20227;-54
2023/03/16 09:04:29;;;;;;;3.93;3.00;;;;;;;;;;4999792;28;20178;-55
2023/03/16 09:06:55;;;;;;;3.60;3.17;;;;;;;;;;5000838;28;20248;-55
2023/03/16 09:09:22;;;;;;;4.63;2.80;;;;;;;;;;5000582;28;20677;-54
2023/03/16 09:11:48;;;;;;;4.40;2.83;;;;;;;;;;4999739;28;20517;-54
2023/03/16 09:14:15;;;;;;;5.10;3.87;;;;;;;;;;4998697;28;20209;-55
2023/03/16 09:16:43;;;;;;;3.00;2.70;;;;;;;;;;4994342;28;20347;-55
2023/03/16 09:19:10;;;;;;;4.57;3.20;;;;;;;;;;4998607;28;20246;-55
2023/03/16 09:21:37;;;;;;;4.30;3.27;;;;;;;;;;5002059;28;20613;-55
2023/03/16 09:24:03;;;;;;;3.97;3.60;;;;;;;;;;4998916;28;20205;-55
2023/03/16 09:26:29;;;;;;;3.83;3.43;;;;;;;;;;4997856;28;20183;-55
2023/03/16 09:28:55;;;;;;;4.53;3.47;;;;;;;;;;4993334;28;20239;-55
2023/03/16 09:31:21;;;;;;;3.67;3.03;;;;;;;;;;4995630;28;20179;-54
2023/03/16 09:33:47;;;;;;;3.57;3.13;;;;;;;;;;5001117;28;20182;-54
2023/03/16 09:36:14;;;;;;;3.93;3.33;;;;;;;;;;5002065;28;20190;-55
2023/03/16 09:38:41;;;;;;;6.63;3.50;;;;;;;;;;5001836;28;20221;-55
2023/03/16 09:41:07;;;;;;;4.63;3.03;;;;;;;;;;4998444;28;20680;-55
2023/03/16 09:43:49;;;;;;;4.00;3.57;;;;;;;;;;4999706;28;20182;-53
2023/03/16 09:46:28;;;;;;;6.10;3.30;;;;;;;;;;4995481;28;20228;-55
2023/03/16 09:48:56;;;;;;;3.97;3.53;;;;;;;;;;4998800;28;20274;-55
2023/03/16 09:51:43;;;;;;;3.40;3.10;;;;;;;;;;4999857;28;20186;-55
2023/03/16 09:54:16;;;;;;;3.57;3.20;;;;;;;;;;4990252;28;20341;-55
2023/03/16 09:56:43;;;;;;;3.63;3.33;;;;;;;;;;4999972;28;20221;-55
2023/03/16 09:59:12;;;;;;;3.17;2.87;;;;;;;;;;5001019;28;20400;-54
2023/03/16 10:01:57;;;;;;;4.93;3.73;;;;;;;;;;4998977;28;20214;-55
2023/03/16 10:04:32;;;;;;;4.23;3.60;;;;;;;;;;4994607;28;20244;-55
2023/03/16 10:07:11;;;;;;;4.40;3.20;;;;;;;;;;4996582;28;20649;-55
2023/03/16 10:09:47;;;;;;;3.57;3.00;;;;;;;;;;4999976;28;20175;-55
2023/03/16 10:12:14;;;;;;;3.97;3.23;;;;;;;;;;4998523;28;20218;-55
2023/03/16 10:14:49;;;;;;;3.77;3.30;;;;;;;;;;4994671;28;20284;-55
2023/03/16 10:17:17;;;;;;;3.20;2.77;;;;;;;;;;4998253;28;20193;-55
2023/03/16 10:19:47;;;;;;;4.00;3.30;;;;;;;;;;4996799;28;20249;-55
2023/03/16 10:22:16;;;;;;;5.83;3.43;;;;;;;;;;4997370;28;20206;-55
2023/03/16 10:24:47;;;;;;;3.93;3.30;;;;;;;;;;4993536;28;20175;-55
2023/03/16 10:27:20;;;;;;;3.17;2.77;;;;;;;;;;5000020;28;20201;-55
2023/03/16 10:29:46;;;;;;;4.47;3.07;;;;;;;;;;4998551;28;20182;-54
2023/03/16 10:32:17;;;;;;;4.33;3.00;;;;;;;;;;4994550;28;20190;-56
2023/03/16 10:34:46;;;;;;;3.70;3.07;;;;;;;;;;4992357;28;20522;-55
2023/03/16 10:37:13;;;;;;;3.13;2.60;;;;;;;;;;4992077;28;20183;-55
2023/03/16 10:39:42;;;;;;;3.43;2.73;;;;;;;;;;4993241;28;21017;-55
2023/03/16 10:42:15;;;;;;;4.00;3.27;;;;;;;;;;4993118;28;20207;-55
2023/03/16 10:44:42;;;;;;;4.10;3.10;;;;;;;;;;4990687;28;20190;-55
2023/03/16 10:47:16;;;;;;;3.80;2.90;;;;;;;;;;4997325;28;20252;-58
2023/03/16 10:49:47;;;;;;;3.73;3.27;;;;;;;;;;4992465;28;20425;-55
2023/03/16 10:52:18;;;;;;;5.43;2.80;;;;;;;;;;4993525;28;20185;-55
2023/03/16 10:54:58;;;;;;;3.57;3.13;;;;;;;;;;4994464;28;20521;-55
2023/03/16 10:57:24;;;;;;;3.07;2.77;;;;;;;;;;5004818;28;20569;-55
2023/03/16 10:59:51;;;;;;;4.70;3.60;;;;;;;;;;4989988;28;20698;-55
2023/03/16 11:02:19;;;;;;;4.40;3.17;;;;;;;;;;4990578;28;20199;-55
2023/03/16 11:04:46;;;;;;;6.27;3.80;;;;;;;;;;4991643;28;20179;-55
2023/03/16 11:07:19;;;;;;;3.27;2.97;;;;;;;;;;4991894;28;20262;-55
2023/03/16 11:09:46;;;;;;;3.33;3.00;;;;;;;;;;5003631;28;20186;-55
2023/03/16 11:12:22;;;;;;;4.03;3.30;;;;;;;;;;4995636;28;20203;-55
2023/03/16 11:14:49;;;;;;;2.80;2.60;;;;;;;;;;4991184;28;20293;-54
2023/03/16 11:17:17;;;;;;;4.60;3.30;;;;;;;;;;4994845;28;20650;-55
2023/03/16 11:19:53;;;;;;;3.53;2.87;;;;;;;;;;4998342;28;20237;-59
2023/03/16 11:22:20;;;;;;;3.77;3.13;;;;;;;;;;4991901;28;20581;-55
2023/03/16 11:24:56;;;;;;;3.47;3.13;;;;;;;;;;4990740;28;20194;-56
2023/03/16 11:27:25;;;;;;;3.43;2.73;;;;;;;;;;5003817;28;20186;-55
2023/03/16 11:29:51;;;;;;;4.67;3.30;;;;;;;;;;4993999;28;20628;-55
2023/03/16 11:32:23;;;;;;;3.00;2.80;;;;;;;;;;4994666;28;20184;-55
2023/03/16 11:34:49;;;;;;;3.00;2.80;;;;;;;;;;4992696;28;20627;-55
2023/03/16 11:37:34;;;;;;;2.87;2.60;;;;;;;;;;5000241;28;20187;-55
2023/03/16 11:40:23;;;;;;;3.23;2.70;;;;;;;;;;4994088;28;20243;-58
2023/03/16 11:42:52;;;;;;;3.43;2.93;;;;;;;;;;4997512;28;20626;-55
2023/03/16 11:45:21;;;;;;;2.80;2.43;;;;;;;;;;4999644;28;20183;-55
2023/03/16 11:48:11;;;;;;;3.13;2.83;;;;;;;;;;5002021;28;20736;-55
2023/03/16 11:50:48;;;;;;;4.93;2.77;;;;;;;;;;4998639;28;20569;-55
2023/03/16 11:53:21;;;;;;;3.17;2.87;;;;;;;;;;4998987;28;20270;-55
2023/03/16 11:56:20;;;;;;;6.07;3.43;;;;;;;;;;4998551;28;20183;-55
2023/03/16 11:58:55;;;;;;;2.57;2.37;;;;;;;;;;4989986;28;20202;-56
2023/03/16 12:01:34;;;;;;;4.00;2.77;;;;;;;;;;4999684;28;21917;-55
2023/03/16 12:04:00;;;;;;;2.70;2.23;;;;;;;;;;5006547;28;20742;-55
2023/03/16 12:06:32;;;;;;;2.70;2.47;;;;;;;;;;5004974;28;20167;-55
2023/03/16 12:09:17;;;;;;;3.33;2.70;;;;;;;;;;5004420;28;20523;-55
2023/03/16 12:11:46;;;;;;;2.70;2.43;;;;;;;;;;4999119;28;20202;-55
2023/03/16 12:14:14;;;;;;;2.47;2.27;;;;;;;;;;5002980;28;20203;-55
2023/03/16 12:16:52;;;;;;;2.43;2.23;;;;;;;;;;5001240;28;20187;-57
2023/03/16 12:19:21;;;;;;;3.13;2.63;;;;;;;;;;5000797;28;20694;-57
2023/03/16 12:21:53;;;;;;;3.27;2.20;;;;;;;;;;5004850;28;20607;-57
2023/03/16 12:24:25;;;;;;;3.80;2.50;;;;;;;;;;5004040;28;20573;-57
2023/03/16 12:26:52;;;;;;;2.40;2.20;;;;;;;;;;5002987;28;20179;-57
2023/03/16 12:29:40;;;;;;;2.63;2.43;;;;;;;;;;5000861;28;20607;-57
2023/03/16 12:32:33;;;;;;;2.53;2.30;;;;;;;;;;4998720;28;20245;-57
2023/03/16 12:35:11;;;;;;;3.17;2.37;;;;;;;;;;5002742;28;20206;-57
2023/03/16 12:37:52;;;;;;;3.67;2.20;;;;;;;;;;5001587;28;20229;-57
2023/03/16 12:40:21;;;;;;;5.03;2.43;;;;;;;;;;4999106;28;20674;-57
2023/03/16 12:43:07;;;;;;;2.90;2.13;;;;;;;;;;5002125;28;20182;-57
2023/03/16 12:45:46;;;;;;;4.87;2.40;;;;;;;;;;4996719;28;20261;-57
2023/03/16 12:48:16;;;;;;;3.73;2.27;;;;;;;;;;5000390;28;20181;-57
2023/03/16 12:50:57;;;;;;;2.93;2.30;;;;;;;;;;4998504;28;20658;-57
2023/03/16 12:53:42;;;;;;;3.13;2.33;;;;;;;;;;4998560;28;20187;-57
2023/03/16 12:56:14;;;;;;;3.00;2.30;;;;;;;;;;4996887;28;20181;-59
2023/03/16 12:58:42;;;;;;;3.10;2.40;;;;;;;;;;4998758;28;20202;-57
2023/03/16 13:01:10;;;;;;;2.57;2.37;;;;;;;;;;5000720;28;20195;-58
2023/03/16 13:03:36;;;;;;;6.63;2.30;;;;;;;;;;4998046;28;20193;-57
2023/03/16 13:06:02;;;;;;;3.60;1.93;;;;;;;;;;4999295;28;20179;-57
2023/03/16 13:08:39;;;;;;;5.80;2.37;;;;;;;;;;5001070;28;20241;-58
2023/03/16 13:11:08;;;;;;;2.17;1.97;;;;;;;;;;5003177;28;20697;-57
2023/03/16 13:13:36;;;;;;;2.37;2.17;;;;;;;;;;4999031;28;20183;-57
2023/03/16 13:16:04;;;;;;;3.23;1.80;;;;;;;;;;5000076;28;20185;-58
2023/03/16 13:18:35;;;;;;;3.13;2.33;;;;;;;;;;5001924;28;20202;-57
2023/03/16 13:21:13;;;;;;;2.87;2.30;;;;;;;;;;5002596;28;20206;-57
2023/03/16 13:23:57;;;;;;;3.47;2.37;;;;;;;;;;5000702;28;20202;-58
2023/03/16 13:26:32;;;;;;;2.23;2.07;;;;;;;;;;4996948;28;20174;-57
2023/03/16 13:28:59;;;;;;;2.70;2.40;;;;;;;;;;4997394;28;20202;-58
2023/03/16 13:31:28;;;;;;;2.47;2.27;;;;;;;;;;5001132;28;20186;-58
2023/03/16 13:33:58;;;;;;;2.53;2.30;;;;;;;;;;4996648;28;20179;-58
2023/03/16 13:36:26;;;;;;;4.50;2.70;;;;;;;;;;4998545;28;20178;-57
2023/03/16 13:39:15;;;;;;;3.60;2.30;;;;;;;;;;4997475;28;20334;-58
2023/03/16 13:41:41;;;;;;;3.23;2.20;;;;;;;;;;4995115;28;20297;-57
2023/03/16 13:44:14;;;;;;;2.63;2.03;;;;;;;;;;5000723;28;20187;-57
2023/03/16 13:46:40;;;;;;;3.13;1.90;;;;;;;;;;4996066;28;20221;-57
2023/03/16 13:49:06;;;;;;;2.00;1.90;;;;;;;;;;5002091;28;20266;-57
2023/03/16 13:51:34;;;;;;;2.10;1.90;;;;;;;;;;5000845;28;20202;-58
2023/03/16 13:54:05;;;;;;;3.63;2.43;;;;;;;;;;4999922;28;20193;-57
2023/03/16 13:56:31;;;;;;;2.20;2.03;;;;;;;;;;4999209;28;20600;-58
2023/03/16 13:58:58;;;;;;;2.37;1.97;;;;;;;;;;4999295;28;20265;-57
2023/03/16 14:01:28;;;;;;;1.97;1.87;;;;;;;;;;4997448;28;20325;-57
2023/03/16 14:04:07;;;;;;;3.10;2.10;;;;;;;;;;4996003;28;20678;-57
2023/03/16 14:06:34;;;;;;;2.17;1.90;;;;;;;;;;4993853;28;20171;-58
2023/03/16 14:09:01;;;;;;;2.70;2.00;;;;;;;;;;4997876;28;20229;-61
2023/03/16 14:11:27;;;;;;;2.03;1.83;;;;;;;;;;4993877;28;20770;-57
2023/03/16 14:13:55;;;;;;;2.53;1.50;;;;;;;;;;4997043;28;20190;-57
2023/03/16 14:16:23;;;;;;;3.70;2.43;;;;;;;;;;4998980;28;20244;-57
2023/03/16 14:18:56;;;;;;;2.00;1.73;;;;;;;;;;4998264;28;20221;-58
2023/03/16 14:21:23;;;;;;;2.23;2.03;;;;;;;;;;5000527;28;20237;-57
2023/03/16 14:23:54;;;;;;;2.13;1.87;;;;;;;;;;4994393;28;20595;-57
2023/03/16 14:26:20;;;;;;;2.13;1.93;;;;;;;;;;4993632;28;20182;-57
2023/03/16 14:28:54;;;;;;;1.87;1.70;;;;;;;;;;4997188;28;20182;-57
2023/03/16 14:31:20;;;;;;;1.83;1.73;;;;;;;;;;4996947;28;20631;-58
2023/03/16 14:33:47;;;;;;;1.77;1.67;;;;;;;;;;4997561;28;20190;-57
2023/03/16 14:36:14;;;;;;;2.70;1.90;;;;;;;;;;4996759;28;20186;-57
2023/03/16 14:38:41;;;;;;;1.73;1.63;;;;;;;;;;4998711;28;20713;-57
2023/03/16 14:41:08;;;;;;;2.37;1.57;;;;;;;;;;4999138;28;20704;-58
2023/03/16 14:43:37;;;;;;;2.00;1.77;;;;;;;;;;4999502;28;20596;-58
2023/03/16 14:46:04;;;;;;;2.70;1.90;;;;;;;;;;4999243;28;20603;-58
2023/03/16 14:48:31;;;;;;;2.00;1.80;;;;;;;;;;4998136;28;20258;-57
2023/03/16 14:51:00;;;;;;;2.27;1.80;;;;;;;;;;4998442;28;20264;-56